sensor_id;sensor_type;location;lat;lon;timestamp;temperature;humidity
20208;DHT22;10263;48.716;8.760;2023-01-24T00:00:56;1.00;99.90
20208;DHT22;10263;48.716;8.760;2023-01-24T00:08:19;1.00;99.90
20208;DHT22;10263;48.716;8.760;2023-01-24T00:10:48;0.90;99.90
20208;DHT22;10263;48.716;8.760;2023-01-24T00:13:16;1.00;99.90
20208;DHT22;10263;48.716;8.760;2023-01-24T00:15:43;1.00;99.90
20208;DHT22;10263;48.716;8.760;2023-01-24T00:25:31;0.90;99.90
20208;DHT22;10263;48.716;8.760;2023-01-24T00:30:26;1.00;99.90
20208;DHT22;10263;48.716;8.760;2023-01-24T00:32:53;1.00;99.90
20208;DHT22;10263;48.716;8.760;2023-01-24T00:35:20;0.90;99.90
20208;DHT22;10263;48.716;8.760;2023-01-24T00:47:38;1.00;99.90
20208;DHT22;10263;48.716;8.760;2023-01-24T00:50:06;1.00;99.90
20208;DHT22;10263;48.716;8.760;2023-01-24T00:59:55;1.00;99.90
20208;DHT22;10263;48.716;8.760;2023-01-24T01:04:51;1.00;99.90
20208;DHT22;10263;48.716;8.760;2023-01-24T01:14:40;1.00;99.90
20208;DHT22;10263;48.716;8.760;2023-01-24T01:22:02;1.00;99.90
20208;DHT22;10263;48.716;8.760;2023-01-24T01:24:29;1.00;99.90
20208;DHT22;10263;48.716;8.760;2023-01-24T01:34:17;1.00;99.90
20208;DHT22;10263;48.716;8.760;2023-01-24T01:39:13;0.90;99.90
20208;DHT22;10263;48.716;8.760;2023-01-24T01:44:21;1.00;99.90
20208;DHT22;10263;48.716;8.760;2023-01-24T01:47:21;1.00;99.90
20208;DHT22;10263;48.716;8.760;2023-01-24T01:49:54;1.00;99.90
20208;DHT22;10263;48.716;8.760;2023-01-24T01:52:25;1.00;99.90
20208;DHT22;10263;48.716;8.760;2023-01-24T01:54:58;1.00;99.90
20208;DHT22;10263;48.716;8.760;2023-01-24T01:57:30;1.00;99.90
20208;DHT22;10263;48.716;8.760;2023-01-24T02:00:03;1.00;99.90
20208;DHT22;10263;48.716;8.760;2023-01-24T02:02:39;1.00;99.90
20208;DHT22;10263;48.716;8.760;2023-01-24T02:05:08;1.00;99.90
20208;DHT22;10263;48.716;8.760;2023-01-24T02:07:41;0.90;99.90
20208;DHT22;10263;48.716;8.760;2023-01-24T02:10:12;0.90;99.90
20208;DHT22;10263;48.716;8.760;2023-01-24T02:12:41;1.00;99.90
20208;DHT22;10263;48.716;8.760;2023-01-24T02:15:11;1.00;99.90
20208;DHT22;10263;48.716;8.760;2023-01-24T02:17:56;0.90;99.90
20208;DHT22;10263;48.716;8.760;2023-01-24T02:20:36;0.90;99.90
20208;DHT22;10263;48.716;8.760;2023-01-24T02:23:15;1.00;99.90
20208;DHT22;10263;48.716;8.760;2023-01-24T02:28:22;0.90;99.90
20208;DHT22;10263;48.716;8.760;2023-01-24T02:33:18;0.90;99.90
20208;DHT22;10263;48.716;8.760;2023-01-24T02:35:45;0.80;99.90
20208;DHT22;10263;48.716;8.760;2023-01-24T02:38:15;0.90;99.90
20208;DHT22;10263;48.716;8.760;2023-01-24T02:40:44;1.00;99.90
20208;DHT22;10263;48.716;8.760;2023-01-24T02:43:13;0.90;99.90
20208;DHT22;10263;48.716;8.760;2023-01-24T02:45:42;0.90;99.90
20208;DHT22;10263;48.716;8.760;2023-01-24T02:48:08;1.00;99.90
20208;DHT22;10263;48.716;8.760;2023-01-24T02:50:35;0.90;99.90
20208;DHT22;10263;48.716;8.760;2023-01-24T03:01:10;0.90;99.90
20208;DHT22;10263;48.716;8.760;2023-01-24T03:08:35;0.90;99.90
20208;DHT22;10263;48.716;8.760;2023-01-24T03:11:08;1.00;99.90
20208;DHT22;10263;48.716;8.760;2023-01-24T03:16:23;0.90;99.90
20208;DHT22;10263;48.716;8.760;2023-01-24T03:30:09;0.90;99.90
20208;DHT22;10263;48.716;8.760;2023-01-24T03:32:59;0.90;99.90
20208;DHT22;10263;48.716;8.760;2023-01-24T03:35:44;0.90;99.90
20208;DHT22;10263;48.716;8.760;2023-01-24T03:38:21;0.90;99.90
20208;DHT22;10263;48.716;8.760;2023-01-24T03:41:06;0.90;99.90
20208;DHT22;10263;48.716;8.760;2023-01-24T03:46:03;0.90;99.90
20208;DHT22;10263;48.716;8.760;2023-01-24T03:48:44;0.90;99.90
20208;DHT22;10263;48.716;8.760;2023-01-24T03:56:28;0.90;99.90
20208;DHT22;10263;48.716;8.760;2023-01-24T04:04:06;0.90;99.90
20208;DHT22;10263;48.716;8.760;2023-01-24T04:16:44;0.80;99.90
20208;DHT22;10263;48.716;8.760;2023-01-24T04:19:20;0.90;99.90
20208;DHT22;10263;48.716;8.760;2023-01-24T04:29:18;0.90;99.90
20208;DHT22;10263;48.716;8.760;2023-01-24T04:34:32;0.80;99.90
20208;DHT22;10263;48.716;8.760;2023-01-24T04:44:29;0.80;99.90
20208;DHT22;10263;48.716;8.760;2023-01-24T04:51:52;0.70;99.90
20208;DHT22;10263;48.716;8.760;2023-01-24T04:56:54;0.80;99.90
20208;DHT22;10263;48.716;8.760;2023-01-24T05:04:34;0.80;99.90
20208;DHT22;10263;48.716;8.760;2023-01-24T05:07:03;0.80;99.90
20208;DHT22;10263;48.716;8.760;2023-01-24T05:09:31;0.80;99.90
20208;DHT22;10263;48.716;8.760;2023-01-24T05:21:52;0.80;99.90
20208;DHT22;10263;48.716;8.760;2023-01-24T05:24:20;-1.00;99.90
20208;DHT22;10263;48.716;8.760;2023-01-24T05:39:15;0.80;99.90
20208;DHT22;10263;48.716;8.760;2023-01-24T05:41:45;0.80;99.90
20208;DHT22;10263;48.716;8.760;2023-01-24T05:51:43;0.80;99.90
20208;DHT22;10263;48.716;8.760;2023-01-24T05:57:13;0.80;99.90
20208;DHT22;10263;48.716;8.760;2023-01-24T06:00:10;0.80;99.90
20208;DHT22;10263;48.716;8.760;2023-01-24T06:02:40;0.80;99.90
20208;DHT22;10263;48.716;8.760;2023-01-24T06:10:03;0.80;99.90
20208;DHT22;10263;48.716;8.760;2023-01-24T06:12:43;0.80;99.90
20208;DHT22;10263;48.716;8.760;2023-01-24T06:20:05;0.80;99.90
20208;DHT22;10263;48.716;8.760;2023-01-24T06:22:42;0.80;99.90
20208;DHT22;10263;48.716;8.760;2023-01-24T06:25:18;0.70;99.90
20208;DHT22;10263;48.716;8.760;2023-01-24T06:27:48;0.80;99.90
20208;DHT22;10263;48.716;8.760;2023-01-24T06:30:16;0.80;99.90
20208;DHT22;10263;48.716;8.760;2023-01-24T06:32:56;0.90;99.90
20208;DHT22;10263;48.716;8.760;2023-01-24T06:35:33;0.70;99.90
20208;DHT22;10263;48.716;8.760;2023-01-24T06:40:30;0.80;99.90
20208;DHT22;10263;48.716;8.760;2023-01-24T06:42:58;0.70;99.90
20208;DHT22;10263;48.716;8.760;2023-01-24T06:47:52;0.70;99.90
20208;DHT22;10263;48.716;8.760;2023-01-24T06:50:21;0.80;99.90
20208;DHT22;10263;48.716;8.760;2023-01-24T06:52:49;0.70;99.90
20208;DHT22;10263;48.716;8.760;2023-01-24T06:55:16;0.70;99.90
20208;DHT22;10263;48.716;8.760;2023-01-24T06:57:43;0.70;99.90
20208;DHT22;10263;48.716;8.760;2023-01-24T07:00:14;0.70;99.90
20208;DHT22;10263;48.716;8.760;2023-01-24T07:05:09;0.70;99.90
20208;DHT22;10263;48.716;8.760;2023-01-24T07:07:36;0.70;99.90
20208;DHT22;10263;48.716;8.760;2023-01-24T07:10:03;0.80;99.90
20208;DHT22;10263;48.716;8.760;2023-01-24T07:12:30;0.70;99.90
20208;DHT22;10263;48.716;8.760;2023-01-24T07:17:26;0.80;99.90
20208;DHT22;10263;48.716;8.760;2023-01-24T07:22:21;0.80;99.90
20208;DHT22;10263;48.716;8.760;2023-01-24T07:24:48;0.80;99.90
20208;DHT22;10263;48.716;8.760;2023-01-24T07:34:38;0.80;99.90
20208;DHT22;10263;48.716;8.760;2023-01-24T07:37:06;0.90;99.90
20208;DHT22;10263;48.716;8.760;2023-01-24T07:44:27;0.90;99.90
20208;DHT22;10263;48.716;8.760;2023-01-24T07:51:49;0.90;99.90
20208;DHT22;10263;48.716;8.760;2023-01-24T07:54:16;0.80;99.90
20208;DHT22;10263;48.716;8.760;2023-01-24T08:01:40;0.80;99.90
20208;DHT22;10263;48.716;8.760;2023-01-24T08:04:07;0.90;99.90
20208;DHT22;10263;48.716;8.760;2023-01-24T08:09:02;0.90;99.90
20208;DHT22;10263;48.716;8.760;2023-01-24T08:11:29;0.90;99.90
20208;DHT22;10263;48.716;8.760;2023-01-24T08:18:51;1.00;99.90
20208;DHT22;10263;48.716;8.760;2023-01-24T08:23:45;0.90;99.90
20208;DHT22;10263;48.716;8.760;2023-01-24T08:26:14;0.90;99.90
20208;DHT22;10263;48.716;8.760;2023-01-24T08:28:40;0.90;99.90
20208;DHT22;10263;48.716;8.760;2023-01-24T08:36:04;0.90;99.90
20208;DHT22;10263;48.716;8.760;2023-01-24T08:43:26;1.00;99.90
20208;DHT22;10263;48.716;8.760;2023-01-24T08:45:53;1.00;99.90
20208;DHT22;10263;48.716;8.760;2023-01-24T09:00:37;1.00;99.90
20208;DHT22;10263;48.716;8.760;2023-01-24T09:07:59;2.20;99.90
20208;DHT22;10263;48.716;8.760;2023-01-24T09:17:48;1.10;99.90
20208;DHT22;10263;48.716;8.760;2023-01-24T09:20:16;1.10;99.90
20208;DHT22;10263;48.716;8.760;2023-01-24T09:22:44;1.20;99.90
20208;DHT22;10263;48.716;8.760;2023-01-24T09:27:38;1.20;99.90
20208;DHT22;10263;48.716;8.760;2023-01-24T09:30:08;1.20;99.90
20208;DHT22;10263;48.716;8.760;2023-01-24T09:32:35;1.20;99.90
20208;DHT22;10263;48.716;8.760;2023-01-24T09:35:04;1.20;99.90
20208;DHT22;10263;48.716;8.760;2023-01-24T09:42:30;1.30;99.90
20208;DHT22;10263;48.716;8.760;2023-01-24T09:45:09;1.30;99.90
20208;DHT22;10263;48.716;8.760;2023-01-24T09:47:42;1.30;99.90
20208;DHT22;10263;48.716;8.760;2023-01-24T09:50:15;1.30;99.90
20208;DHT22;10263;48.716;8.760;2023-01-24T09:52:43;1.20;99.90
20208;DHT22;10263;48.716;8.760;2023-01-24T09:55:14;1.30;99.90
20208;DHT22;10263;48.716;8.760;2023-01-24T09:57:50;1.30;99.90
20208;DHT22;10263;48.716;8.760;2023-01-24T10:00:22;1.30;99.90
20208;DHT22;10263;48.716;8.760;2023-01-24T10:05:19;1.30;99.90
20208;DHT22;10263;48.716;8.760;2023-01-24T10:07:56;1.30;99.90
20208;DHT22;10263;48.716;8.760;2023-01-24T10:10:43;1.30;99.90
20208;DHT22;10263;48.716;8.760;2023-01-24T10:13:23;1.30;99.90
20208;DHT22;10263;48.716;8.760;2023-01-24T10:15:59;1.40;99.90
20208;DHT22;10263;48.716;8.760;2023-01-24T10:18:46;1.30;99.90
20208;DHT22;10263;48.716;8.760;2023-01-24T10:21:34;1.30;99.90
20208;DHT22;10263;48.716;8.760;2023-01-24T10:24:09;1.30;99.90
20208;DHT22;10263;48.716;8.760;2023-01-24T10:26:41;1.70;99.90
20208;DHT22;10263;48.716;8.760;2023-01-24T10:29:13;1.40;99.90
20208;DHT22;10263;48.716;8.760;2023-01-24T10:31:42;1.30;99.90
20208;DHT22;10263;48.716;8.760;2023-01-24T10:34:14;1.40;99.90
20208;DHT22;10263;48.716;8.760;2023-01-24T10:36:46;1.40;99.90
20208;DHT22;10263;48.716;8.760;2023-01-24T10:44:13;1.40;99.90
20208;DHT22;10263;48.716;8.760;2023-01-24T10:47:02;1.40;99.90
20208;DHT22;10263;48.716;8.760;2023-01-24T10:49:35;1.50;99.90
20208;DHT22;10263;48.716;8.760;2023-01-24T10:52:12;1.50;99.90
20208;DHT22;10263;48.716;8.760;2023-01-24T10:54:44;1.50;99.90
20208;DHT22;10263;48.716;8.760;2023-01-24T10:57:38;1.50;99.90
20208;DHT22;10263;48.716;8.760;2023-01-24T11:00:18;1.60;99.90
20208;DHT22;10263;48.716;8.760;2023-01-24T11:02:48;1.60;99.90
20208;DHT22;10263;48.716;8.760;2023-01-24T11:05:17;1.60;99.90
20208;DHT22;10263;48.716;8.760;2023-01-24T11:07:47;1.60;99.90
20208;DHT22;10263;48.716;8.760;2023-01-24T11:10:19;1.60;99.90
20208;DHT22;10263;48.716;8.760;2023-01-24T11:12:51;1.60;99.90
20208;DHT22;10263;48.716;8.760;2023-01-24T11:15:22;1.60;99.90
20208;DHT22;10263;48.716;8.760;2023-01-24T11:17:56;1.60;99.90
20208;DHT22;10263;48.716;8.760;2023-01-24T11:20:31;1.60;99.90
20208;DHT22;10263;48.716;8.760;2023-01-24T11:23:04;1.60;99.90
20208;DHT22;10263;48.716;8.760;2023-01-24T11:25:31;2.20;99.90
20208;DHT22;10263;48.716;8.760;2023-01-24T11:27:58;1.60;99.90
20208;DHT22;10263;48.716;8.760;2023-01-24T11:33:07;1.70;99.90
20208;DHT22;10263;48.716;8.760;2023-01-24T11:35:42;1.70;99.90
20208;DHT22;10263;48.716;8.760;2023-01-24T11:38:21;1.70;99.90
20208;DHT22;10263;48.716;8.760;2023-01-24T11:40:58;1.70;99.90
20208;DHT22;10263;48.716;8.760;2023-01-24T11:43:42;1.70;99.90
20208;DHT22;10263;48.716;8.760;2023-01-24T11:46:25;1.70;99.90
20208;DHT22;10263;48.716;8.760;2023-01-24T11:48:58;1.70;99.90
20208;DHT22;10263;48.716;8.760;2023-01-24T11:51:41;1.80;99.90
20208;DHT22;10263;48.716;8.760;2023-01-24T11:54:33;1.80;99.90
20208;DHT22;10263;48.716;8.760;2023-01-24T11:57:15;1.80;99.90
20208;DHT22;10263;48.716;8.760;2023-01-24T11:59:57;1.80;99.90
20208;DHT22;10263;48.716;8.760;2023-01-24T12:02:44;1.80;99.90
20208;DHT22;10263;48.716;8.760;2023-01-24T12:05:29;1.80;99.90
20208;DHT22;10263;48.716;8.760;2023-01-24T12:08:09;1.80;99.90
20208;DHT22;10263;48.716;8.760;2023-01-24T12:10:48;1.80;99.90
20208;DHT22;10263;48.716;8.760;2023-01-24T12:13:21;1.80;99.90
20208;DHT22;10263;48.716;8.760;2023-01-24T12:15:58;1.70;99.90
20208;DHT22;10263;48.716;8.760;2023-01-24T12:18:42;1.80;99.90
20208;DHT22;10263;48.716;8.760;2023-01-24T12:23:47;1.80;99.90
20208;DHT22;10263;48.716;8.760;2023-01-24T12:26:21;1.80;99.90
20208;DHT22;10263;48.716;8.760;2023-01-24T12:28:55;1.80;99.90
20208;DHT22;10263;48.716;8.760;2023-01-24T12:31:30;1.80;99.90
20208;DHT22;10263;48.716;8.760;2023-01-24T12:34:00;1.80;99.90
20208;DHT22;10263;48.716;8.760;2023-01-24T12:36:36;1.80;99.90
20208;DHT22;10263;48.716;8.760;2023-01-24T12:39:11;1.80;99.90
20208;DHT22;10263;48.716;8.760;2023-01-24T12:41:44;1.80;99.90
20208;DHT22;10263;48.716;8.760;2023-01-24T12:44:23;1.90;99.90
20208;DHT22;10263;48.716;8.760;2023-01-24T12:47:09;1.80;99.90
20208;DHT22;10263;48.716;8.760;2023-01-24T12:49:44;1.90;99.90
20208;DHT22;10263;48.716;8.760;2023-01-24T12:52:20;2.90;99.90
20208;DHT22;10263;48.716;8.760;2023-01-24T12:54:51;1.90;99.90
20208;DHT22;10263;48.716;8.760;2023-01-24T12:57:25;1.90;99.90
20208;DHT22;10263;48.716;8.760;2023-01-24T13:05:33;1.80;99.90
20208;DHT22;10263;48.716;8.760;2023-01-24T13:08:14;1.80;99.90
20208;DHT22;10263;48.716;8.760;2023-01-24T13:10:53;1.90;99.90
20208;DHT22;10263;48.716;8.760;2023-01-24T13:13:27;1.90;99.90
20208;DHT22;10263;48.716;8.760;2023-01-24T13:16:05;1.80;99.90
20208;DHT22;10263;48.716;8.760;2023-01-24T13:18:52;1.90;99.90
20208;DHT22;10263;48.716;8.760;2023-01-24T13:21:24;1.90;99.90
20208;DHT22;10263;48.716;8.760;2023-01-24T13:24:19;1.80;99.90
20208;DHT22;10263;48.716;8.760;2023-01-24T13:27:19;1.80;99.90
20208;DHT22;10263;48.716;8.760;2023-01-24T13:32:52;1.80;99.90
20208;DHT22;10263;48.716;8.760;2023-01-24T13:35:21;1.80;99.90
20208;DHT22;10263;48.716;8.760;2023-01-24T13:37:51;1.80;99.90
20208;DHT22;10263;48.716;8.760;2023-01-24T13:40:22;1.70;99.90
20208;DHT22;10263;48.716;8.760;2023-01-24T13:48:47;1.80;99.90
20208;DHT22;10263;48.716;8.760;2023-01-24T13:51:44;1.80;99.90
20208;DHT22;10263;48.716;8.760;2023-01-24T13:54:35;1.80;99.90
20208;DHT22;10263;48.716;8.760;2023-01-24T13:57:24;1.80;99.90
20208;DHT22;10263;48.716;8.760;2023-01-24T14:00:12;1.80;99.90
20208;DHT22;10263;48.716;8.760;2023-01-24T14:02:41;0.00;99.90
20208;DHT22;10263;48.716;8.760;2023-01-24T14:05:40;1.70;99.90
20208;DHT22;10263;48.716;8.760;2023-01-24T14:08:16;1.80;99.90
20208;DHT22;10263;48.716;8.760;2023-01-24T14:11:15;1.80;99.90
20208;DHT22;10263;48.716;8.760;2023-01-24T14:13:52;1.80;99.90
20208;DHT22;10263;48.716;8.760;2023-01-24T14:19:22;1.80;99.90
20208;DHT22;10263;48.716;8.760;2023-01-24T14:21:59;1.70;99.90
20208;DHT22;10263;48.716;8.760;2023-01-24T14:24:32;1.70;99.90
20208;DHT22;10263;48.716;8.760;2023-01-24T14:27:01;1.70;99.90
20208;DHT22;10263;48.716;8.760;2023-01-24T14:29:38;1.70;99.90
20208;DHT22;10263;48.716;8.760;2023-01-24T14:32:18;1.70;99.90
20208;DHT22;10263;48.716;8.760;2023-01-24T14:34:50;1.70;99.90
20208;DHT22;10263;48.716;8.760;2023-01-24T14:37:21;1.70;99.90
20208;DHT22;10263;48.716;8.760;2023-01-24T14:42:15;1.70;99.90
20208;DHT22;10263;48.716;8.760;2023-01-24T14:44:50;1.70;99.90
20208;DHT22;10263;48.716;8.760;2023-01-24T14:47:21;1.70;99.90
20208;DHT22;10263;48.716;8.760;2023-01-24T14:49:50;1.70;99.90
20208;DHT22;10263;48.716;8.760;2023-01-24T14:52:18;1.60;99.90
20208;DHT22;10263;48.716;8.760;2023-01-24T14:54:49;1.60;99.90
20208;DHT22;10263;48.716;8.760;2023-01-24T14:57:24;1.60;99.90
20208;DHT22;10263;48.716;8.760;2023-01-24T15:00:04;1.60;99.90
20208;DHT22;10263;48.716;8.760;2023-01-24T15:02:31;1.60;99.90
20208;DHT22;10263;48.716;8.760;2023-01-24T15:04:58;1.60;99.90
20208;DHT22;10263;48.716;8.760;2023-01-24T15:09:54;1.50;99.90
20208;DHT22;10263;48.716;8.760;2023-01-24T15:12:24;1.60;99.90
20208;DHT22;10263;48.716;8.760;2023-01-24T15:14:53;1.60;99.90
20208;DHT22;10263;48.716;8.760;2023-01-24T15:17:23;1.60;99.90
20208;DHT22;10263;48.716;8.760;2023-01-24T15:19:53;1.60;99.90
20208;DHT22;10263;48.716;8.760;2023-01-24T15:22:22;1.60;99.90
20208;DHT22;10263;48.716;8.760;2023-01-24T15:24:51;1.60;99.90
20208;DHT22;10263;48.716;8.760;2023-01-24T15:27:39;1.60;99.90
20208;DHT22;10263;48.716;8.760;2023-01-24T15:30:15;1.60;99.90
20208;DHT22;10263;48.716;8.760;2023-01-24T15:32:44;1.60;99.90
20208;DHT22;10263;48.716;8.760;2023-01-24T15:38:18;1.60;99.90
20208;DHT22;10263;48.716;8.760;2023-01-24T15:40:54;1.50;99.90
20208;DHT22;10263;48.716;8.760;2023-01-24T15:43:27;1.60;99.90
20208;DHT22;10263;48.716;8.760;2023-01-24T15:46:16;1.60;99.90
20208;DHT22;10263;48.716;8.760;2023-01-24T15:49:03;1.60;99.90
20208;DHT22;10263;48.716;8.760;2023-01-24T15:51:33;1.60;99.90
20208;DHT22;10263;48.716;8.760;2023-01-24T15:56:29;1.60;99.90
20208;DHT22;10263;48.716;8.760;2023-01-24T15:58:57;4.00;99.90
20208;DHT22;10263;48.716;8.760;2023-01-24T16:01:27;1.60;99.90
20208;DHT22;10263;48.716;8.760;2023-01-24T16:04:11;1.60;99.90
20208;DHT22;10263;48.716;8.760;2023-01-24T16:14:04;1.50;99.90
20208;DHT22;10263;48.716;8.760;2023-01-24T16:16:32;1.50;99.90
20208;DHT22;10263;48.716;8.760;2023-01-24T16:19:00;1.50;99.90
20208;DHT22;10263;48.716;8.760;2023-01-24T16:26:23;1.40;99.90
20208;DHT22;10263;48.716;8.760;2023-01-24T16:28:50;1.50;99.90
20208;DHT22;10263;48.716;8.760;2023-01-24T16:31:19;1.50;99.90
20208;DHT22;10263;48.716;8.760;2023-01-24T16:36:13;1.50;99.90
20208;DHT22;10263;48.716;8.760;2023-01-24T16:38:41;1.40;99.90
20208;DHT22;10263;48.716;8.760;2023-01-24T16:43:36;1.40;99.90
20208;DHT22;10263;48.716;8.760;2023-01-24T16:46:13;1.40;99.90
20208;DHT22;10263;48.716;8.760;2023-01-24T16:48:43;1.40;99.90
20208;DHT22;10263;48.716;8.760;2023-01-24T16:51:10;1.40;99.90
20208;DHT22;10263;48.716;8.760;2023-01-24T16:56:05;1.40;99.90
20208;DHT22;10263;48.716;8.760;2023-01-24T17:05:54;1.30;99.90
20208;DHT22;10263;48.716;8.760;2023-01-24T17:13:15;1.30;99.90
20208;DHT22;10263;48.716;8.760;2023-01-24T17:23:05;1.30;99.90
20208;DHT22;10263;48.716;8.760;2023-01-24T17:37:47;1.30;99.90
20208;DHT22;10263;48.716;8.760;2023-01-24T17:40:15;1.30;99.90
20208;DHT22;10263;48.716;8.760;2023-01-24T17:42:42;1.30;99.90
20208;DHT22;10263;48.716;8.760;2023-01-24T17:45:10;1.30;99.90
20208;DHT22;10263;48.716;8.760;2023-01-24T17:50:06;1.20;99.90
20208;DHT22;10263;48.716;8.760;2023-01-24T17:57:28;1.30;99.90
20208;DHT22;10263;48.716;8.760;2023-01-24T18:09:44;1.20;99.90
20208;DHT22;10263;48.716;8.760;2023-01-24T18:12:12;1.10;99.90
20208;DHT22;10263;48.716;8.760;2023-01-24T18:14:40;1.20;99.90
20208;DHT22;10263;48.716;8.760;2023-01-24T18:29:23;1.10;99.90
20208;DHT22;10263;48.716;8.760;2023-01-24T18:31:51;1.20;99.90
20208;DHT22;10263;48.716;8.760;2023-01-24T18:39:12;1.20;99.90
20208;DHT22;10263;48.716;8.760;2023-01-24T18:44:11;1.20;99.90
20208;DHT22;10263;48.716;8.760;2023-01-24T18:49:06;1.20;99.90
20208;DHT22;10263;48.716;8.760;2023-01-24T18:58:55;1.10;99.90
20208;DHT22;10263;48.716;8.760;2023-01-24T19:01:24;1.20;99.90
20208;DHT22;10263;48.716;8.760;2023-01-24T19:03:51;1.20;99.90
20208;DHT22;10263;48.716;8.760;2023-01-24T19:06:24;1.20;99.90
20208;DHT22;10263;48.716;8.760;2023-01-24T19:08:51;1.20;99.90
20208;DHT22;10263;48.716;8.760;2023-01-24T19:13:45;1.20;99.90
20208;DHT22;10263;48.716;8.760;2023-01-24T19:21:08;1.20;99.90
20208;DHT22;10263;48.716;8.760;2023-01-24T19:23:37;1.10;99.90
20208;DHT22;10263;48.716;8.760;2023-01-24T19:26:05;1.10;99.90
20208;DHT22;10263;48.716;8.760;2023-01-24T19:33:26;2.00;99.90
20208;DHT22;10263;48.716;8.760;2023-01-24T19:35:53;1.20;99.90
20208;DHT22;10263;48.716;8.760;2023-01-24T19:40:49;1.20;99.90
20208;DHT22;10263;48.716;8.760;2023-01-24T19:45:43;1.20;99.90
20208;DHT22;10263;48.716;8.760;2023-01-24T19:48:11;1.20;99.90
20208;DHT22;10263;48.716;8.760;2023-01-24T19:50:38;1.20;99.90
20208;DHT22;10263;48.716;8.760;2023-01-24T19:58:02;1.20;99.90
20208;DHT22;10263;48.716;8.760;2023-01-24T20:00:29;1.20;99.90
20208;DHT22;10263;48.716;8.760;2023-01-24T20:07:52;1.20;99.90
20208;DHT22;10263;48.716;8.760;2023-01-24T20:15:14;1.20;99.90
20208;DHT22;10263;48.716;8.760;2023-01-24T20:20:10;1.20;99.90
20208;DHT22;10263;48.716;8.760;2023-01-24T20:22:37;1.20;99.90
20208;DHT22;10263;48.716;8.760;2023-01-24T20:25:04;1.20;99.90
20208;DHT22;10263;48.716;8.760;2023-01-24T20:32:26;1.20;99.90
20208;DHT22;10263;48.716;8.760;2023-01-24T20:49:38;1.20;99.90
20208;DHT22;10263;48.716;8.760;2023-01-24T21:04:20;1.10;99.90
20208;DHT22;10263;48.716;8.760;2023-01-24T21:06:49;2.40;99.90
20208;DHT22;10263;48.716;8.760;2023-01-24T21:11:43;1.10;99.90
20208;DHT22;10263;48.716;8.760;2023-01-24T21:14:12;1.10;99.90
20208;DHT22;10263;48.716;8.760;2023-01-24T21:19:11;1.10;99.90
20208;DHT22;10263;48.716;8.760;2023-01-24T21:24:11;1.10;99.90
20208;DHT22;10263;48.716;8.760;2023-01-24T21:29:07;1.10;99.90
20208;DHT22;10263;48.716;8.760;2023-01-24T21:31:34;1.00;99.90
20208;DHT22;10263;48.716;8.760;2023-01-24T21:34:01;1.10;99.90
20208;DHT22;10263;48.716;8.760;2023-01-24T21:36:28;1.00;99.90
20208;DHT22;10263;48.716;8.760;2023-01-24T21:41:28;1.00;99.90
20208;DHT22;10263;48.716;8.760;2023-01-24T21:49:08;1.00;99.90
20208;DHT22;10263;48.716;8.760;2023-01-24T21:51:36;1.00;99.90
20208;DHT22;10263;48.716;8.760;2023-01-24T21:54:05;1.00;99.90
20208;DHT22;10263;48.716;8.760;2023-01-24T21:56:35;1.00;99.90
20208;DHT22;10263;48.716;8.760;2023-01-24T21:59:21;1.00;99.90
20208;DHT22;10263;48.716;8.760;2023-01-24T22:01:49;1.00;99.90
20208;DHT22;10263;48.716;8.760;2023-01-24T22:04:17;1.00;99.90
20208;DHT22;10263;48.716;8.760;2023-01-24T22:06:44;1.00;99.90
20208;DHT22;10263;48.716;8.760;2023-01-24T22:09:11;1.00;99.90
20208;DHT22;10263;48.716;8.760;2023-01-24T22:11:40;1.00;99.90
20208;DHT22;10263;48.716;8.760;2023-01-24T22:14:13;1.00;99.90
20208;DHT22;10263;48.716;8.760;2023-01-24T22:16:41;1.00;99.90
20208;DHT22;10263;48.716;8.760;2023-01-24T22:19:10;1.00;99.90
20208;DHT22;10263;48.716;8.760;2023-01-24T22:21:48;1.00;99.90
20208;DHT22;10263;48.716;8.760;2023-01-24T22:24:26;1.00;99.90
20208;DHT22;10263;48.716;8.760;2023-01-24T22:27:02;1.00;99.90
20208;DHT22;10263;48.716;8.760;2023-01-24T22:29:30;1.00;99.90
20208;DHT22;10263;48.716;8.760;2023-01-24T22:34:26;1.00;99.90
20208;DHT22;10263;48.716;8.760;2023-01-24T22:36:57;1.00;99.90
20208;DHT22;10263;48.716;8.760;2023-01-24T22:44:20;1.00;99.90
20208;DHT22;10263;48.716;8.760;2023-01-24T23:01:31;1.00;99.90
20208;DHT22;10263;48.716;8.760;2023-01-24T23:16:38;1.00;99.90
20208;DHT22;10263;48.716;8.760;2023-01-24T23:19:28;1.00;99.90
20208;DHT22;10263;48.716;8.760;2023-01-24T23:22:14;1.00;99.90
20208;DHT22;10263;48.716;8.760;2023-01-24T23:24:42;0.90;99.90
20208;DHT22;10263;48.716;8.760;2023-01-24T23:27:11;1.00;99.90
20208;DHT22;10263;48.716;8.760;2023-01-24T23:29:49;1.00;99.90
20208;DHT22;10263;48.716;8.760;2023-01-24T23:32:21;1.00;99.90
20208;DHT22;10263;48.716;8.760;2023-01-24T23:34:53;1.00;99.90
20208;DHT22;10263;48.716;8.760;2023-01-24T23:37:21;1.00;99.90
20208;DHT22;10263;48.716;8.760;2023-01-24T23:42:15;0.90;99.90
20208;DHT22;10263;48.716;8.760;2023-01-24T23:47:10;0.90;99.90
20208;DHT22;10263;48.716;8.760;2023-01-24T23:49:38;1.00;99.90
20208;DHT22;10263;48.716;8.760;2023-01-24T23:52:06;1.00;99.90
20208;DHT22;10263;48.716;8.760;2023-01-24T23:57:00;0.90;99.90
20208;DHT22;10263;48.716;8.760;2023-01-24T23:59:27;1.00;99.90
